sensor_id;sensor_type;location;lat;lon;timestamp;pressure;altitude;pressure_sealevel;temperature;humidity
78123;BME280;67376;44.802;10.332;2023-03-04T00:01:42;101266.81;;;17.98;46.32
78123;BME280;67376;44.802;10.332;2023-03-04T00:04:08;101269.09;;;18.01;46.41
78123;BME280;67376;44.802;10.332;2023-03-04T00:06:33;101269.72;;;17.96;46.06
78123;BME280;67376;44.802;10.332;2023-03-04T00:08:59;101274.69;;;17.99;45.75
78123;BME280;67376;44.802;10.332;2023-03-04T00:11:24;101274.91;;;17.98;46.31
78123;BME280;67376;44.802;10.332;2023-03-04T00:13:50;101286.53;;;17.98;46.11
78123;BME280;67376;44.802;10.332;2023-03-04T00:16:15;101279.28;;;17.99;46.17
78123;BME280;67376;44.802;10.332;2023-03-04T00:18:40;101277.41;;;17.99;46.03
78123;BME280;67376;44.802;10.332;2023-03-04T00:21:06;101289.44;;;17.97;46.41
78123;BME280;67376;44.802;10.332;2023-03-04T00:23:31;101283.22;;;17.96;45.65
78123;BME280;67376;44.802;10.332;2023-03-04T00:25:56;101280.50;;;17.96;45.94
78123;BME280;67376;44.802;10.332;2023-03-04T00:28:22;101280.09;;;17.99;46.47
78123;BME280;67376;44.802;10.332;2023-03-04T00:30:47;101276.78;;;17.97;45.97
78123;BME280;67376;44.802;10.332;2023-03-04T00:33:13;101273.03;;;17.98;46.08
78123;BME280;67376;44.802;10.332;2023-03-04T00:35:38;101271.38;;;17.97;45.71
78123;BME280;67376;44.802;10.332;2023-03-04T00:38:04;101281.75;;;17.94;45.46
78123;BME280;67376;44.802;10.332;2023-03-04T00:40:29;101281.56;;;17.95;45.76
78123;BME280;67376;44.802;10.332;2023-03-04T00:42:55;101279.25;;;17.92;45.51
78123;BME280;67376;44.802;10.332;2023-03-04T00:45:20;101271.41;;;17.91;46.27
78123;BME280;67376;44.802;10.332;2023-03-04T00:47:46;101275.53;;;17.93;46.16
78123;BME280;67376;44.802;10.332;2023-03-04T00:50:11;101270.94;;;17.94;46.28
78123;BME280;67376;44.802;10.332;2023-03-04T00:52:37;101265.56;;;17.94;45.69
78123;BME280;67376;44.802;10.332;2023-03-04T00:55:02;101268.25;;;17.94;45.71
78123;BME280;67376;44.802;10.332;2023-03-04T00:57:28;101266.38;;;17.94;46.06
78123;BME280;67376;44.802;10.332;2023-03-04T00:59:53;101268.47;;;17.92;45.68
78123;BME280;67376;44.802;10.332;2023-03-04T01:02:18;101261.63;;;17.90;46.13
78123;BME280;67376;44.802;10.332;2023-03-04T01:04:44;101258.09;;;17.89;45.77
78123;BME280;67376;44.802;10.332;2023-03-04T01:07:09;101248.31;;;17.88;46.26
78123;BME280;67376;44.802;10.332;2023-03-04T01:09:35;101250.19;;;17.88;46.11
78123;BME280;67376;44.802;10.332;2023-03-04T01:12:00;101237.91;;;17.92;45.73
78123;BME280;67376;44.802;10.332;2023-03-04T01:14:25;101235.66;;;17.89;45.88
78123;BME280;67376;44.802;10.332;2023-03-04T01:16:51;101241.88;;;17.89;46.30
78123;BME280;67376;44.802;10.332;2023-03-04T01:19:17;101230.88;;;17.91;45.97
78123;BME280;67376;44.802;10.332;2023-03-04T01:21:42;101239.19;;;17.89;46.19
78123;BME280;67376;44.802;10.332;2023-03-04T01:24:08;101239.78;;;17.91;46.03
78123;BME280;67376;44.802;10.332;2023-03-04T01:26:33;101236.47;;;17.89;46.02
78123;BME280;67376;44.802;10.332;2023-03-04T01:28:59;101234.63;;;17.90;45.58
78123;BME280;67376;44.802;10.332;2023-03-04T01:31:24;101231.28;;;17.88;46.10
78123;BME280;67376;44.802;10.332;2023-03-04T01:33:50;101219.66;;;17.87;46.01
78123;BME280;67376;44.802;10.332;2023-03-04T01:36:15;101224.00;;;17.88;45.73
78123;BME280;67376;44.802;10.332;2023-03-04T01:38:41;101226.94;;;17.87;46.62
78123;BME280;67376;44.802;10.332;2023-03-04T01:41:06;101226.72;;;17.88;45.77
78123;BME280;67376;44.802;10.332;2023-03-04T01:43:34;101232.53;;;17.85;46.13
78123;BME280;67376;44.802;10.332;2023-03-04T01:46:01;101225.88;;;17.88;45.91
78123;BME280;67376;44.802;10.332;2023-03-04T01:48:31;101220.91;;;17.85;45.48
78123;BME280;67376;44.802;10.332;2023-03-04T01:50:58;101223.59;;;17.85;46.03
78123;BME280;67376;44.802;10.332;2023-03-04T01:53:28;101220.28;;;17.89;46.18
78123;BME280;67376;44.802;10.332;2023-03-04T01:56:00;101225.88;;;17.88;45.69
78123;BME280;67376;44.802;10.332;2023-03-04T01:58:31;101224.44;;;17.85;45.69
78123;BME280;67376;44.802;10.332;2023-03-04T02:00:57;101223.59;;;17.85;46.07
78123;BME280;67376;44.802;10.332;2023-03-04T02:03:23;101224.84;;;17.89;45.49
78123;BME280;67376;44.802;10.332;2023-03-04T02:05:50;101222.34;;;17.87;45.50
78123;BME280;67376;44.802;10.332;2023-03-04T02:08:19;101219.03;;;17.85;45.27
78123;BME280;67376;44.802;10.332;2023-03-04T02:10:45;101231.91;;;17.83;45.77
78123;BME280;67376;44.802;10.332;2023-03-04T02:13:11;101227.13;;;17.85;45.71
78123;BME280;67376;44.802;10.332;2023-03-04T02:15:39;101227.13;;;17.85;45.48
78123;BME280;67376;44.802;10.332;2023-03-04T02:18:18;101226.31;;;17.85;45.97
78123;BME280;67376;44.802;10.332;2023-03-04T02:21:14;101224.63;;;17.84;45.65
78123;BME280;67376;44.802;10.332;2023-03-04T02:24:05;101217.16;;;17.86;45.29
78123;BME280;67376;44.802;10.332;2023-03-04T02:26:35;101219.22;;;17.84;45.67
78123;BME280;67376;44.802;10.332;2023-03-04T02:29:02;101215.06;;;17.81;45.52
78123;BME280;67376;44.802;10.332;2023-03-04T02:31:32;101206.56;;;17.84;45.72
78123;BME280;67376;44.802;10.332;2023-03-04T02:34:04;101212.38;;;17.81;45.47
78123;BME280;67376;44.802;10.332;2023-03-04T02:36:31;101213.63;;;17.85;45.70
78123;BME280;67376;44.802;10.332;2023-03-04T02:39:09;101219.44;;;17.82;45.83
78123;BME280;67376;44.802;10.332;2023-03-04T02:41:36;101211.97;;;17.84;45.39
78123;BME280;67376;44.802;10.332;2023-03-04T02:44:02;101214.03;;;17.82;45.64
78123;BME280;67376;44.802;10.332;2023-03-04T02:46:27;101211.53;;;17.80;45.49
78123;BME280;67376;44.802;10.332;2023-03-04T02:48:53;101215.69;;;17.83;45.26
78123;BME280;67376;44.802;10.332;2023-03-04T02:51:18;101211.75;;;17.79;45.25
78123;BME280;67376;44.802;10.332;2023-03-04T02:53:43;101216.31;;;17.85;45.98
78123;BME280;67376;44.802;10.332;2023-03-04T02:56:09;101217.56;;;17.83;45.60
78123;BME280;67376;44.802;10.332;2023-03-04T02:58:34;101210.72;;;17.73;45.34
78123;BME280;67376;44.802;10.332;2023-03-04T03:01:00;101220.91;;;17.85;45.60
78123;BME280;67376;44.802;10.332;2023-03-04T03:03:26;101218.41;;;17.83;45.96
78123;BME280;67376;44.802;10.332;2023-03-04T03:05:53;101222.16;;;17.82;45.40
78123;BME280;67376;44.802;10.332;2023-03-04T03:08:18;101220.28;;;17.83;45.84
78123;BME280;67376;44.802;10.332;2023-03-04T03:10:44;101228.16;;;17.84;45.73
78123;BME280;67376;44.802;10.332;2023-03-04T03:13:09;101223.81;;;17.83;45.50
78123;BME280;67376;44.802;10.332;2023-03-04T03:15:35;101219.03;;;17.78;45.43
78123;BME280;67376;44.802;10.332;2023-03-04T03:18:01;101214.03;;;17.82;45.67
78123;BME280;67376;44.802;10.332;2023-03-04T03:20:27;101210.72;;;17.80;45.35
78123;BME280;67376;44.802;10.332;2023-03-04T03:22:52;101208.44;;;17.77;45.58
78123;BME280;67376;44.802;10.332;2023-03-04T03:25:18;101210.50;;;17.81;45.87
78123;BME280;67376;44.802;10.332;2023-03-04T03:27:43;101215.06;;;17.81;45.37
78123;BME280;67376;44.802;10.332;2023-03-04T03:30:11;101211.97;;;17.77;45.21
78123;BME280;67376;44.802;10.332;2023-03-04T03:32:36;101205.53;;;17.78;45.58
78123;BME280;67376;44.802;10.332;2023-03-04T03:35:02;101203.66;;;17.79;45.44
78123;BME280;67376;44.802;10.332;2023-03-04T03:37:28;101203.03;;;17.77;45.80
78123;BME280;67376;44.802;10.332;2023-03-04T03:39:53;101197.00;;;17.75;45.59
78123;BME280;67376;44.802;10.332;2023-03-04T03:42:19;101195.53;;;17.79;45.30
78123;BME280;67376;44.802;10.332;2023-03-04T03:44:44;101208.00;;;17.80;44.97
78123;BME280;67376;44.802;10.332;2023-03-04T03:47:10;101194.31;;;17.81;45.67
78123;BME280;67376;44.802;10.332;2023-03-04T03:49:35;101202.19;;;17.83;45.32
78123;BME280;67376;44.802;10.332;2023-03-04T03:52:01;101209.47;;;17.83;45.59
78123;BME280;67376;44.802;10.332;2023-03-04T03:54:26;101208.00;;;17.80;45.40
78123;BME280;67376;44.802;10.332;2023-03-04T03:56:51;101203.22;;;17.82;45.26
78123;BME280;67376;44.802;10.332;2023-03-04T03:59:17;101189.72;;;17.75;45.28
78123;BME280;67376;44.802;10.332;2023-03-04T04:01:42;101198.25;;;17.79;45.93
78123;BME280;67376;44.802;10.332;2023-03-04T04:04:08;101200.94;;;17.79;45.62
78123;BME280;67376;44.802;10.332;2023-03-04T04:06:33;101199.28;;;17.78;45.81
78123;BME280;67376;44.802;10.332;2023-03-04T04:08:58;101192.44;;;17.75;45.47
78123;BME280;67376;44.802;10.332;2023-03-04T04:11:24;101187.22;;;17.74;45.54
78123;BME280;67376;44.802;10.332;2023-03-04T04:13:50;101185.38;;;17.74;45.67
78123;BME280;67376;44.802;10.332;2023-03-04T04:16:15;101192.84;;;17.72;45.29
78123;BME280;67376;44.802;10.332;2023-03-04T04:18:40;101194.91;;;17.77;45.61
78123;BME280;67376;44.802;10.332;2023-03-04T04:21:06;101197.63;;;17.77;45.19
78123;BME280;67376;44.802;10.332;2023-03-04T04:23:31;101198.44;;;17.77;45.39
78123;BME280;67376;44.802;10.332;2023-03-04T04:25:57;101194.91;;;17.77;45.39
78123;BME280;67376;44.802;10.332;2023-03-04T04:28:23;101181.41;;;17.77;45.74
78123;BME280;67376;44.802;10.332;2023-03-04T04:30:49;101173.72;;;17.74;45.21
78123;BME280;67376;44.802;10.332;2023-03-04T04:33:15;101178.31;;;17.73;45.05
78123;BME280;67376;44.802;10.332;2023-03-04T04:35:40;101178.72;;;17.77;45.99
78123;BME280;67376;44.802;10.332;2023-03-04T04:38:07;101188.06;;;17.74;45.11
78123;BME280;67376;44.802;10.332;2023-03-04T04:40:33;101175.19;;;17.70;45.22
78123;BME280;67376;44.802;10.332;2023-03-04T04:42:58;101180.59;;;17.76;45.61
78123;BME280;67376;44.802;10.332;2023-03-04T04:45:24;101188.06;;;17.74;45.51
78123;BME280;67376;44.802;10.332;2023-03-04T04:47:54;101190.75;;;17.74;45.83
78123;BME280;67376;44.802;10.332;2023-03-04T04:50:24;101176.84;;;17.71;45.42
78123;BME280;67376;44.802;10.332;2023-03-04T04:52:50;101179.97;;;17.74;45.49
78123;BME280;67376;44.802;10.332;2023-03-04T04:55:16;101186.81;;;17.77;45.80
78123;BME280;67376;44.802;10.332;2023-03-04T04:57:41;101186.41;;;17.73;45.19
78123;BME280;67376;44.802;10.332;2023-03-04T05:00:09;101182.66;;;17.74;45.07
78123;BME280;67376;44.802;10.332;2023-03-04T05:02:35;101189.09;;;17.73;45.21
78123;BME280;67376;44.802;10.332;2023-03-04T05:05:02;101189.31;;;17.72;45.36
78123;BME280;67376;44.802;10.332;2023-03-04T05:07:28;101194.91;;;17.70;45.57
78123;BME280;67376;44.802;10.332;2023-03-04T05:09:53;101185.16;;;17.69;44.99
78123;BME280;67376;44.802;10.332;2023-03-04T05:12:19;101187.22;;;17.67;44.87
78123;BME280;67376;44.802;10.332;2023-03-04T05:14:44;101189.72;;;17.69;45.36
78123;BME280;67376;44.802;10.332;2023-03-04T05:17:09;101195.94;;;17.69;44.90
78123;BME280;67376;44.802;10.332;2023-03-04T05:19:35;101200.94;;;17.66;45.27
78123;BME280;67376;44.802;10.332;2023-03-04T05:22:00;101199.06;;;17.66;44.83
78123;BME280;67376;44.802;10.332;2023-03-04T05:24:25;101198.03;;;17.67;44.60
78123;BME280;67376;44.802;10.332;2023-03-04T05:26:51;101199.25;;;17.65;45.12
78123;BME280;67376;44.802;10.332;2023-03-04T05:29:16;101201.56;;;17.68;44.44
78123;BME280;67376;44.802;10.332;2023-03-04T05:31:42;101201.56;;;17.68;44.47
78123;BME280;67376;44.802;10.332;2023-03-04T05:34:07;101192.84;;;17.66;44.29
78123;BME280;67376;44.802;10.332;2023-03-04T05:36:32;101194.50;;;17.67;44.33
78123;BME280;67376;44.802;10.332;2023-03-04T05:38:58;101202.38;;;17.68;44.39
78123;BME280;67376;44.802;10.332;2023-03-04T05:41:23;101196.16;;;17.68;44.22
78123;BME280;67376;44.802;10.332;2023-03-04T05:43:50;101195.94;;;17.69;43.88
78123;BME280;67376;44.802;10.332;2023-03-04T05:46:17;101199.28;;;17.71;43.63
78123;BME280;67376;44.802;10.332;2023-03-04T05:48:43;101200.09;;;17.72;43.27
78123;BME280;67376;44.802;10.332;2023-03-04T05:51:09;101194.50;;;17.73;43.72
78123;BME280;67376;44.802;10.332;2023-03-04T05:53:35;101178.25;;;17.60;44.02
78123;BME280;67376;44.802;10.332;2023-03-04T05:56:09;101187.44;;;17.72;44.13
78123;BME280;67376;44.802;10.332;2023-03-04T05:58:35;101200.09;;;17.72;43.51
78123;BME280;67376;44.802;10.332;2023-03-04T06:01:01;101198.22;;;17.66;43.31
78123;BME280;67376;44.802;10.332;2023-03-04T06:03:26;101202.81;;;17.72;43.09
78123;BME280;67376;44.802;10.332;2023-03-04T06:05:52;101211.75;;;17.72;43.11
78123;BME280;67376;44.802;10.332;2023-03-04T06:08:18;101191.38;;;17.70;43.03
78123;BME280;67376;44.802;10.332;2023-03-04T06:10:44;101199.69;;;17.68;42.89
78123;BME280;67376;44.802;10.332;2023-03-04T06:13:09;101214.66;;;17.71;42.88
78123;BME280;67376;44.802;10.332;2023-03-04T06:15:35;101208.22;;;17.72;43.22
78123;BME280;67376;44.802;10.332;2023-03-04T06:18:01;101213.81;;;17.70;43.31
78123;BME280;67376;44.802;10.332;2023-03-04T06:20:26;101213.81;;;17.70;42.74
78123;BME280;67376;44.802;10.332;2023-03-04T06:22:52;101214.66;;;17.71;43.21
78123;BME280;67376;44.802;10.332;2023-03-04T06:25:17;101212.16;;;17.69;43.68
78123;BME280;67376;44.802;10.332;2023-03-04T06:27:43;101218.38;;;17.70;42.46
78123;BME280;67376;44.802;10.332;2023-03-04T06:30:09;101224.63;;;17.70;42.91
78123;BME280;67376;44.802;10.332;2023-03-04T06:32:34;101220.88;;;17.71;42.84
78123;BME280;67376;44.802;10.332;2023-03-04T06:35:00;101221.72;;;17.72;42.57
78123;BME280;67376;44.802;10.332;2023-03-04T06:37:25;101212.16;;;17.69;41.97
78123;BME280;67376;44.802;10.332;2023-03-04T06:39:50;101226.50;;;17.70;42.29
78123;BME280;67376;44.802;10.332;2023-03-04T06:42:16;101224.63;;;17.70;42.90
78123;BME280;67376;44.802;10.332;2023-03-04T06:44:42;101230.03;;;17.70;42.84
78123;BME280;67376;44.802;10.332;2023-03-04T06:47:07;101230.84;;;17.71;42.86
78123;BME280;67376;44.802;10.332;2023-03-04T06:49:32;101234.38;;;17.71;42.22
78123;BME280;67376;44.802;10.332;2023-03-04T06:51:58;101238.13;;;17.70;42.44
78123;BME280;67376;44.802;10.332;2023-03-04T06:54:23;101232.09;;;17.68;42.60
78123;BME280;67376;44.802;10.332;2023-03-04T06:56:49;101235.41;;;17.70;42.08
78123;BME280;67376;44.802;10.332;2023-03-04T06:59:14;101230.63;;;17.66;42.35
78123;BME280;67376;44.802;10.332;2023-03-04T07:01:40;101239.16;;;17.69;42.78
78123;BME280;67376;44.802;10.332;2023-03-04T07:04:05;101235.41;;;17.70;42.44
78123;BME280;67376;44.802;10.332;2023-03-04T07:06:31;101241.78;;;16.89;39.94
78123;BME280;67376;44.802;10.332;2023-03-04T07:08:57;101240.66;;;16.07;39.94
78123;BME280;67376;44.802;10.332;2023-03-04T07:11:22;101244.13;;;16.01;40.96
78123;BME280;67376;44.802;10.332;2023-03-04T07:13:49;101237.34;;;16.40;41.32
78123;BME280;67376;44.802;10.332;2023-03-04T07:16:19;101250.00;;;16.67;42.01
78123;BME280;67376;44.802;10.332;2023-03-04T07:18:45;101248.41;;;16.86;42.22
78123;BME280;67376;44.802;10.332;2023-03-04T07:21:12;101256.19;;;17.02;42.28
78123;BME280;67376;44.802;10.332;2023-03-04T07:23:38;101253.53;;;17.15;42.23
78123;BME280;67376;44.802;10.332;2023-03-04T07:26:04;101252.31;;;17.25;42.13
78123;BME280;67376;44.802;10.332;2023-03-04T07:28:30;101250.06;;;17.28;41.51
78123;BME280;67376;44.802;10.332;2023-03-04T07:30:55;101257.31;;;17.34;41.84
78123;BME280;67376;44.802;10.332;2023-03-04T07:33:20;101255.66;;;17.40;41.69
78123;BME280;67376;44.802;10.332;2023-03-04T07:35:46;101257.13;;;17.42;41.87
78123;BME280;67376;44.802;10.332;2023-03-04T07:38:11;101263.78;;;17.46;41.87
78123;BME280;67376;44.802;10.332;2023-03-04T07:40:37;101264.22;;;17.50;41.83
78123;BME280;67376;44.802;10.332;2023-03-04T07:43:03;101264.22;;;17.50;41.66
78123;BME280;67376;44.802;10.332;2023-03-04T07:45:28;101262.97;;;17.53;41.38
78123;BME280;67376;44.802;10.332;2023-03-04T07:47:54;101255.72;;;17.53;42.05
78123;BME280;67376;44.802;10.332;2023-03-04T07:50:19;101261.13;;;17.60;41.81
78123;BME280;67376;44.802;10.332;2023-03-04T07:52:46;101255.72;;;17.60;41.67
78123;BME280;67376;44.802;10.332;2023-03-04T07:55:13;101253.44;;;17.63;41.62
78123;BME280;67376;44.802;10.332;2023-03-04T07:57:43;101255.56;;;17.68;41.78
78123;BME280;67376;44.802;10.332;2023-03-04T08:00:11;101242.91;;;17.68;41.71
78123;BME280;67376;44.802;10.332;2023-03-04T08:02:37;101257.25;;;17.75;42.06
78123;BME280;67376;44.802;10.332;2023-03-04T08:05:03;101252.47;;;17.77;42.00
78123;BME280;67376;44.802;10.332;2023-03-04T08:07:28;101255.78;;;17.79;42.15
78123;BME280;67376;44.802;10.332;2023-03-04T08:09:54;101250.81;;;17.83;41.74
78123;BME280;67376;44.802;10.332;2023-03-04T08:12:19;101242.72;;;17.83;41.89
78123;BME280;67376;44.802;10.332;2023-03-04T08:14:45;101247.91;;;17.85;41.94
78123;BME280;67376;44.802;10.332;2023-03-04T08:17:10;101243.97;;;17.87;41.86
78123;BME280;67376;44.802;10.332;2023-03-04T08:19:39;101235.44;;;17.84;42.49
78123;BME280;67376;44.802;10.332;2023-03-04T08:22:04;101245.00;;;17.86;42.60
78123;BME280;67376;44.802;10.332;2023-03-04T08:24:29;101249.38;;;17.87;42.15
78123;BME280;67376;44.802;10.332;2023-03-04T08:26:55;101246.25;;;17.84;42.52
78123;BME280;67376;44.802;10.332;2023-03-04T08:29:22;101240.84;;;17.84;42.16
78123;BME280;67376;44.802;10.332;2023-03-04T08:31:48;101245.00;;;17.86;42.46
78123;BME280;67376;44.802;10.332;2023-03-04T08:34:15;101248.75;;;17.85;41.96
78123;BME280;67376;44.802;10.332;2023-03-04T08:36:41;101230.88;;;17.77;42.00
78123;BME280;67376;44.802;10.332;2023-03-04T08:39:07;101238.56;;;17.87;42.24
78123;BME280;67376;44.802;10.332;2023-03-04T08:41:34;101243.13;;;17.87;42.35
78123;BME280;67376;44.802;10.332;2023-03-04T08:44:00;101244.16;;;17.86;41.91
78123;BME280;67376;44.802;10.332;2023-03-04T08:46:25;101236.69;;;17.88;41.48
78123;BME280;67376;44.802;10.332;2023-03-04T08:48:51;101237.94;;;17.85;41.59
78123;BME280;67376;44.802;10.332;2023-03-04T08:51:16;101241.69;;;17.91;41.32
78123;BME280;67376;44.802;10.332;2023-03-04T08:53:42;101245.19;;;17.91;41.98
78123;BME280;67376;44.802;10.332;2023-03-04T08:56:08;101239.56;;;17.93;41.70
78123;BME280;67376;44.802;10.332;2023-03-04T08:58:34;101243.94;;;17.94;41.15
78123;BME280;67376;44.802;10.332;2023-03-04T09:01:01;101230.63;;;17.92;41.50
78123;BME280;67376;44.802;10.332;2023-03-04T09:03:27;101232.09;;;17.95;42.04
78123;BME280;67376;44.802;10.332;2023-03-04T09:05:53;101227.09;;;17.98;42.44
78123;BME280;67376;44.802;10.332;2023-03-04T09:08:19;101220.66;;;17.99;42.98
78123;BME280;67376;44.802;10.332;2023-03-04T09:10:45;101231.25;;;18.01;42.30
78123;BME280;67376;44.802;10.332;2023-03-04T09:13:12;101228.78;;;17.99;42.20
78123;BME280;67376;44.802;10.332;2023-03-04T09:15:44;101233.75;;;18.02;42.24
78123;BME280;67376;44.802;10.332;2023-03-04T09:18:10;101232.94;;;18.02;42.26
78123;BME280;67376;44.802;10.332;2023-03-04T09:20:36;101223.38;;;18.06;41.85
78123;BME280;67376;44.802;10.332;2023-03-04T09:23:01;101220.66;;;18.06;41.69
78123;BME280;67376;44.802;10.332;2023-03-04T09:25:27;101225.25;;;18.05;41.59
78123;BME280;67376;44.802;10.332;2023-03-04T09:27:52;101224.81;;;18.08;41.27
78123;BME280;67376;44.802;10.332;2023-03-04T09:30:18;101215.25;;;18.12;41.36
78123;BME280;67376;44.802;10.332;2023-03-04T09:32:44;101221.06;;;18.09;40.92
78123;BME280;67376;44.802;10.332;2023-03-04T09:35:09;101219.00;;;18.11;41.33
78123;BME280;67376;44.802;10.332;2023-03-04T09:37:35;101222.31;;;18.13;41.04
78123;BME280;67376;44.802;10.332;2023-03-04T09:40:00;101217.34;;;18.10;41.13
78123;BME280;67376;44.802;10.332;2023-03-04T09:42:31;101218.38;;;18.09;41.08
78123;BME280;67376;44.802;10.332;2023-03-04T09:44:58;101215.69;;;18.03;40.57
78123;BME280;67376;44.802;10.332;2023-03-04T09:47:25;101215.69;;;18.03;41.37
78123;BME280;67376;44.802;10.332;2023-03-04T09:49:57;101214.44;;;18.05;41.08
78123;BME280;67376;44.802;10.332;2023-03-04T10:00:14;101216.09;;;18.20;40.73
78123;BME280;67376;44.802;10.332;2023-03-04T10:05:33;101208.38;;;18.30;41.01
78123;BME280;67376;44.802;10.332;2023-03-04T10:10:38;101211.28;;;18.41;40.20
78123;BME280;67376;44.802;10.332;2023-03-04T10:13:13;101209.19;;;18.43;40.22
78123;BME280;67376;44.802;10.332;2023-03-04T10:15:42;101196.09;;;18.47;40.04
78123;BME280;67376;44.802;10.332;2023-03-04T10:23:28;101193.19;;;18.42;40.41
78123;BME280;67376;44.802;10.332;2023-03-04T10:25:54;101192.16;;;18.30;40.79
78123;BME280;67376;44.802;10.332;2023-03-04T10:28:25;101201.50;;;18.34;40.99
78123;BME280;67376;44.802;10.332;2023-03-04T10:31:01;101187.41;;;18.19;41.69
78123;BME280;67376;44.802;10.332;2023-03-04T10:33:30;101191.78;;;18.13;41.18
78123;BME280;67376;44.802;10.332;2023-03-04T10:38:43;101176.59;;;18.05;40.93
78123;BME280;67376;44.802;10.332;2023-03-04T10:41:20;101172.03;;;18.06;40.82
78123;BME280;67376;44.802;10.332;2023-03-04T10:43:50;101169.75;;;18.03;40.84
78123;BME280;67376;44.802;10.332;2023-03-04T10:46:24;101169.13;;;18.07;40.64
78123;BME280;67376;44.802;10.332;2023-03-04T10:48:51;101169.72;;;18.16;40.31
78123;BME280;67376;44.802;10.332;2023-03-04T10:51:25;101150.81;;;18.23;39.73
78123;BME280;67376;44.802;10.332;2023-03-04T10:53:57;101153.47;;;18.36;40.56
78123;BME280;67376;44.802;10.332;2023-03-04T10:56:38;101146.41;;;18.41;40.37
78123;BME280;67376;44.802;10.332;2023-03-04T10:59:22;101148.25;;;18.47;41.29
78123;BME280;67376;44.802;10.332;2023-03-04T11:01:49;101146.97;;;18.50;40.61
78123;BME280;67376;44.802;10.332;2023-03-04T11:04:16;101142.22;;;18.45;41.42
78123;BME280;67376;44.802;10.332;2023-03-04T11:06:42;101136.16;;;18.50;41.06
78123;BME280;67376;44.802;10.332;2023-03-04T11:09:20;101134.72;;;18.47;41.52
78123;BME280;67376;44.802;10.332;2023-03-04T11:11:49;101122.69;;;18.43;41.27
78123;BME280;67376;44.802;10.332;2023-03-04T11:14:25;101122.84;;;18.48;41.49
78123;BME280;67376;44.802;10.332;2023-03-04T11:17:02;101125.94;;;18.52;41.31
78123;BME280;67376;44.802;10.332;2023-03-04T11:19:38;101119.06;;;18.56;41.60
78123;BME280;67376;44.802;10.332;2023-03-04T11:22:04;101119.91;;;18.57;41.42
78123;BME280;67376;44.802;10.332;2023-03-04T11:24:33;101102.28;;;18.47;40.88
78123;BME280;67376;44.802;10.332;2023-03-04T11:27:04;101111.81;;;18.50;41.68
78123;BME280;67376;44.802;10.332;2023-03-04T11:29:50;101112.28;;;18.47;41.09
78123;BME280;67376;44.802;10.332;2023-03-04T11:32:29;101104.59;;;18.44;41.29
78123;BME280;67376;44.802;10.332;2023-03-04T11:38:22;101100.66;;;18.40;41.62
78123;BME280;67376;44.802;10.332;2023-03-04T11:40:56;101096.28;;;18.39;41.12
78123;BME280;67376;44.802;10.332;2023-03-04T11:43:35;101091.50;;;18.41;40.79
78123;BME280;67376;44.802;10.332;2023-03-04T11:49:10;101078.28;;;18.58;40.24
78123;BME280;67376;44.802;10.332;2023-03-04T11:57:29;101067.47;;;18.58;40.78
78123;BME280;67376;44.802;10.332;2023-03-04T12:00:15;101068.53;;;18.57;40.28
78123;BME280;67376;44.802;10.332;2023-03-04T12:05:48;101050.84;;;18.54;41.04
78123;BME280;67376;44.802;10.332;2023-03-04T12:10:53;101045.44;;;18.54;40.87
78123;BME280;67376;44.802;10.332;2023-03-04T12:19:07;101033.81;;;18.54;41.67
78123;BME280;67376;44.802;10.332;2023-03-04T12:35:23;101009.06;;;18.50;42.10
78123;BME280;67376;44.802;10.332;2023-03-04T12:43:58;100995.63;;;18.75;41.77
78123;BME280;67376;44.802;10.332;2023-03-04T12:54:48;100978.66;;;18.23;43.01
78123;BME280;67376;44.802;10.332;2023-03-04T12:57:18;100980.97;;;18.20;43.43
78123;BME280;67376;44.802;10.332;2023-03-04T12:59:50;100977.88;;;18.16;43.70
78123;BME280;67376;44.802;10.332;2023-03-04T13:02:35;100971.22;;;18.19;43.52
78123;BME280;67376;44.802;10.332;2023-03-04T13:08:31;100961.44;;;18.18;44.09
78123;BME280;67376;44.802;10.332;2023-03-04T13:11:31;100962.03;;;18.26;43.30
78123;BME280;67376;44.802;10.332;2023-03-04T13:16:51;100948.53;;;18.20;43.91
78123;BME280;67376;44.802;10.332;2023-03-04T13:22:33;100947.09;;;18.17;44.40
78123;BME280;67376;44.802;10.332;2023-03-04T13:41:23;100927.31;;;18.23;44.34
78123;BME280;67376;44.802;10.332;2023-03-04T13:43:53;100927.72;;;18.27;44.30
78123;BME280;67376;44.802;10.332;2023-03-04T13:51:36;100919.59;;;18.27;44.64
78123;BME280;67376;44.802;10.332;2023-03-04T13:56:44;100916.94;;;18.20;44.47
78123;BME280;67376;44.802;10.332;2023-03-04T13:59:32;100907.75;;;18.28;44.99
78123;BME280;67376;44.802;10.332;2023-03-04T14:02:11;100908.41;;;18.23;45.17
78123;BME280;67376;44.802;10.332;2023-03-04T14:04:39;100909.22;;;18.24;45.84
78123;BME280;67376;44.802;10.332;2023-03-04T14:07:26;100903.66;;;18.19;45.37
78123;BME280;67376;44.802;10.332;2023-03-04T14:12:47;100905.31;;;18.20;45.99
78123;BME280;67376;44.802;10.332;2023-03-04T14:17:43;100894.69;;;18.25;45.39
78123;BME280;67376;44.802;10.332;2023-03-04T14:23:00;100894.03;;;18.29;45.09
78123;BME280;67376;44.802;10.332;2023-03-04T14:25:32;100885.31;;;18.27;45.71
78123;BME280;67376;44.802;10.332;2023-03-04T14:30:34;100875.75;;;18.25;45.21
78123;BME280;67376;44.802;10.332;2023-03-04T14:33:00;100876.97;;;18.29;45.03
78123;BME280;67376;44.802;10.332;2023-03-04T14:35:28;100875.38;;;18.21;45.80
78123;BME280;67376;44.802;10.332;2023-03-04T14:38:00;100872.44;;;18.23;45.42
78123;BME280;67376;44.802;10.332;2023-03-04T14:40:30;100863.41;;;18.35;45.83